Time;durP1;ratioP1;P1;durP2;ratioP2;P2;SDS_P1;SDS_P2;PMS_P1;PMS_P2;Temp;Humidity;BMP_temperature;BMP_pressure;BME280_temperature;BME280_humidity;BME280_pressure;Samples;Min_cycle;Max_cycle;Signal;HPM_P1;HPM_P2
2023/07/08 00:00:45;;;;;;;10.70;5.43;;;;;;;;;;4963798;28;20030;-35
2023/07/08 00:03:10;;;;;;;10.18;5.13;;;;;;;;;;4958397;28;20109;-35
2023/07/08 00:05:36;;;;;;;12.02;5.78;;;;;;;;;;4955469;28;20166;-35
2023/07/08 00:08:01;;;;;;;11.85;5.40;;;;;;;;;;4957459;28;20121;-35
2023/07/08 00:10:27;;;;;;;10.55;5.22;;;;;;;;;;4958221;28;20023;-35
2023/07/08 00:12:54;;;;;;;6.93;5.25;;;;;;;;;;4950325;28;20030;-35
2023/07/08 00:15:21;;;;;;;12.43;5.07;;;;;;;;;;4949275;28;20493;-35
2023/07/08 00:17:46;;;;;;;6.85;5.43;;;;;;;;;;4953009;28;20489;-35
2023/07/08 00:20:21;;;;;;;12.43;6.37;;;;;;;;;;4950684;28;20037;-35
2023/07/08 00:22:52;;;;;;;14.30;7.65;;;;;;;;;;4953789;28;20037;-35
2023/07/08 00:25:19;;;;;;;10.35;6.45;;;;;;;;;;4961569;28;20026;-35
2023/07/08 00:27:44;;;;;;;8.25;5.20;;;;;;;;;;4960104;28;20049;-35
2023/07/08 00:30:36;;;;;;;8.32;4.55;;;;;;;;;;4953877;28;20035;-34
2023/07/08 00:33:01;;;;;;;13.23;7.18;;;;;;;;;;4956931;28;20094;-35
2023/07/08 00:35:39;;;;;;;8.73;5.00;;;;;;;;;;4958298;28;20031;-35
2023/07/08 00:38:12;;;;;;;8.73;5.32;;;;;;;;;;4957104;28;20600;-35
2023/07/08 00:40:37;;;;;;;7.30;4.35;;;;;;;;;;4959553;28;20071;-35
2023/07/08 00:43:05;;;;;;;9.52;5.30;;;;;;;;;;4960022;28;20325;-35
2023/07/08 00:45:58;;;;;;;8.52;4.82;;;;;;;;;;4953917;28;20031;-36
2023/07/08 00:48:27;;;;;;;8.68;4.78;;;;;;;;;;4943313;28;20076;-36
2023/07/08 00:50:53;;;;;;;7.80;4.78;;;;;;;;;;4956211;28;20448;-36
2023/07/08 00:53:22;;;;;;;9.17;5.23;;;;;;;;;;4957090;28;20376;-36
2023/07/08 00:55:47;;;;;;;9.05;4.70;;;;;;;;;;4960986;28;20027;-36
2023/07/08 00:58:13;;;;;;;6.53;4.57;;;;;;;;;;4960889;28;20069;-36
2023/07/08 01:00:38;;;;;;;6.35;4.40;;;;;;;;;;4962000;28;20066;-36
2023/07/08 01:03:03;;;;;;;7.60;4.40;;;;;;;;;;4960066;28;20038;-35
2023/07/08 01:05:30;;;;;;;6.27;4.23;;;;;;;;;;4965657;28;20697;-35
2023/07/08 01:07:57;;;;;;;6.85;4.53;;;;;;;;;;4966716;28;20285;-35
2023/07/08 01:10:26;;;;;;;6.80;4.68;;;;;;;;;;4951394;28;20042;-35
2023/07/08 01:12:53;;;;;;;6.13;4.50;;;;;;;;;;4960128;28;20026;-36
2023/07/08 01:15:20;;;;;;;6.68;4.25;;;;;;;;;;4961719;28;20026;-36
2023/07/08 01:17:46;;;;;;;10.00;4.30;;;;;;;;;;4962820;28;20059;-36
2023/07/08 01:20:14;;;;;;;8.43;4.60;;;;;;;;;;4961647;28;20073;-36
2023/07/08 01:22:40;;;;;;;6.38;4.50;;;;;;;;;;4959988;28;20038;-37
2023/07/08 01:25:06;;;;;;;6.93;4.13;;;;;;;;;;4957919;28;20023;-36
2023/07/08 01:27:34;;;;;;;8.70;4.57;;;;;;;;;;4958071;28;20034;-35
2023/07/08 01:30:00;;;;;;;9.35;4.60;;;;;;;;;;4950966;28;20486;-36
2023/07/08 01:32:25;;;;;;;6.63;4.75;;;;;;;;;;4963314;28;20023;-35
2023/07/08 01:35:01;;;;;;;9.95;4.68;;;;;;;;;;4959922;28;20098;-37
2023/07/08 01:37:32;;;;;;;6.07;4.57;;;;;;;;;;4962612;28;20034;-37
2023/07/08 01:39:57;;;;;;;9.17;4.77;;;;;;;;;;4961969;28;20031;-37
2023/07/08 01:42:23;;;;;;;8.93;4.60;;;;;;;;;;4961159;28;20031;-36
2023/07/08 01:44:49;;;;;;;9.02;4.45;;;;;;;;;;4965449;28;20385;-35
2023/07/08 01:47:16;;;;;;;8.80;4.57;;;;;;;;;;4957802;28;20482;-37
2023/07/08 01:49:42;;;;;;;6.97;5.20;;;;;;;;;;4957681;28;20034;-36
2023/07/08 01:52:08;;;;;;;8.45;4.90;;;;;;;;;;4962728;28;20359;-36
2023/07/08 01:54:33;;;;;;;6.30;4.60;;;;;;;;;;4965183;28;20544;-36
2023/07/08 01:57:00;;;;;;;6.63;3.97;;;;;;;;;;4963556;28;20034;-35
2023/07/08 01:59:26;;;;;;;8.27;4.20;;;;;;;;;;4952223;28;20039;-36
2023/07/08 02:01:54;;;;;;;6.82;4.80;;;;;;;;;;4962329;28;20449;-36
2023/07/08 02:04:20;;;;;;;5.85;4.57;;;;;;;;;;4959798;28;20026;-35
2023/07/08 02:06:50;;;;;;;7.72;4.47;;;;;;;;;;4960200;28;20532;-36
2023/07/08 02:09:15;;;;;;;8.15;4.30;;;;;;;;;;4960070;28;20025;-36
2023/07/08 02:11:41;;;;;;;6.90;4.70;;;;;;;;;;4961120;28;20023;-36
2023/07/08 02:14:07;;;;;;;11.47;4.37;;;;;;;;;;4955277;28;20549;-35
2023/07/08 02:16:32;;;;;;;9.82;4.25;;;;;;;;;;4962628;28;20043;-35
2023/07/08 02:18:57;;;;;;;8.37;4.87;;;;;;;;;;4963929;28;20066;-36
2023/07/08 02:21:23;;;;;;;8.33;5.37;;;;;;;;;;4956991;28;20034;-36
2023/07/08 02:23:50;;;;;;;6.87;4.90;;;;;;;;;;4962710;28;20026;-36
2023/07/08 02:26:15;;;;;;;10.05;4.72;;;;;;;;;;4959737;28;20046;-36
2023/07/08 02:28:40;;;;;;;8.03;5.40;;;;;;;;;;4958384;28;20080;-35
2023/07/08 02:31:05;;;;;;;7.20;4.43;;;;;;;;;;4958061;28;20085;-36
2023/07/08 02:33:32;;;;;;;7.13;4.57;;;;;;;;;;4962593;28;20023;-35
2023/07/08 02:35:58;;;;;;;8.57;4.50;;;;;;;;;;4963835;28;20314;-36
2023/07/08 02:38:23;;;;;;;8.65;4.65;;;;;;;;;;4960241;28;20064;-35
2023/07/08 02:40:48;;;;;;;6.60;4.43;;;;;;;;;;4959718;28;20039;-36
2023/07/08 02:43:13;;;;;;;7.33;4.57;;;;;;;;;;4960638;28;20114;-35
2023/07/08 02:45:39;;;;;;;11.77;5.37;;;;;;;;;;4963294;28;20038;-37
2023/07/08 02:48:04;;;;;;;7.30;4.77;;;;;;;;;;4949804;28;20444;-36
2023/07/08 02:50:29;;;;;;;8.88;5.03;;;;;;;;;;4958490;28;20274;-35
2023/07/08 02:52:54;;;;;;;10.83;5.37;;;;;;;;;;4964099;28;20077;-35
2023/07/08 02:55:20;;;;;;;11.10;5.10;;;;;;;;;;4963949;28;20425;-35
2023/07/08 02:57:45;;;;;;;9.47;5.00;;;;;;;;;;4960527;28;20023;-36
2023/07/08 03:00:11;;;;;;;9.10;4.73;;;;;;;;;;4966814;28;20039;-37
2023/07/08 03:02:36;;;;;;;10.32;5.30;;;;;;;;;;4957766;28;20501;-36
2023/07/08 03:05:01;;;;;;;8.73;4.90;;;;;;;;;;4959366;28;20063;-35
2023/07/08 03:07:26;;;;;;;10.82;5.35;;;;;;;;;;4960742;28;20432;-36
2023/07/08 03:09:52;;;;;;;8.57;5.27;;;;;;;;;;4961597;28;20090;-36
2023/07/08 03:12:17;;;;;;;8.03;5.47;;;;;;;;;;4960526;28;20020;-36
2023/07/08 03:14:43;;;;;;;9.37;4.70;;;;;;;;;;4967273;28;20033;-35
2023/07/08 03:17:08;;;;;;;11.45;5.22;;;;;;;;;;4966481;28;20282;-36
2023/07/08 03:19:33;;;;;;;8.68;4.97;;;;;;;;;;4956798;28;20532;-36
2023/07/08 03:21:58;;;;;;;12.03;6.13;;;;;;;;;;4963584;28;20042;-35
2023/07/08 03:24:24;;;;;;;7.00;5.40;;;;;;;;;;4962697;28;20291;-35
2023/07/08 03:26:54;;;;;;;9.70;5.75;;;;;;;;;;4964770;28;20038;-35
2023/07/08 03:29:19;;;;;;;7.13;4.68;;;;;;;;;;4953080;28;20033;-36
2023/07/08 03:31:45;;;;;;;7.72;5.35;;;;;;;;;;4963604;28;20031;-35
2023/07/08 03:34:15;;;;;;;11.40;6.55;;;;;;;;;;4962979;28;20524;-36
2023/07/08 03:36:48;;;;;;;7.75;6.10;;;;;;;;;;4962538;28;20422;-36
2023/07/08 03:39:14;;;;;;;13.20;6.45;;;;;;;;;;4949576;28;20532;-35
2023/07/08 03:41:39;;;;;;;16.50;7.20;;;;;;;;;;4953317;28;20482;-36
2023/07/08 03:44:04;;;;;;;14.90;6.23;;;;;;;;;;4960848;28;20109;-36
2023/07/08 03:46:29;;;;;;;5.67;3.70;;;;;;;;;;4961945;28;20034;-36
2023/07/08 03:48:55;;;;;;;10.20;5.77;;;;;;;;;;4962789;28;20023;-35
2023/07/08 03:51:22;;;;;;;5.90;3.97;;;;;;;;;;4963089;28;20309;-35
2023/07/08 03:53:48;;;;;;;9.38;5.70;;;;;;;;;;4959549;28;20062;-37
2023/07/08 03:56:13;;;;;;;13.30;6.20;;;;;;;;;;4954246;28;20018;-37
2023/07/08 03:58:39;;;;;;;9.32;5.68;;;;;;;;;;4955074;28;20896;-36
2023/07/08 04:01:04;;;;;;;11.65;5.70;;;;;;;;;;4948707;28;20486;-36
2023/07/08 04:03:29;;;;;;;9.27;5.50;;;;;;;;;;4961907;28;20022;-36
2023/07/08 04:05:55;;;;;;;6.50;3.60;;;;;;;;;;4965905;28;20039;-37
2023/07/08 04:08:20;;;;;;;17.85;5.40;;;;;;;;;;4961759;28;20033;-36
2023/07/08 04:10:46;;;;;;;10.83;4.60;;;;;;;;;;4956705;28;20028;-36
2023/07/08 04:13:11;;;;;;;15.93;9.57;;;;;;;;;;4958791;28;20049;-36
2023/07/08 04:15:36;;;;;;;17.83;9.00;;;;;;;;;;4963615;28;20054;-44
2023/07/08 04:18:02;;;;;;;11.13;6.13;;;;;;;;;;4956397;28;20035;-35
2023/07/08 04:20:27;;;;;;;12.90;6.70;;;;;;;;;;4953873;28;20038;-37
2023/07/08 04:22:52;;;;;;;8.53;6.00;;;;;;;;;;4965120;28;20362;-36
2023/07/08 04:25:18;;;;;;;10.70;6.80;;;;;;;;;;4970289;28;20278;-36
2023/07/08 04:27:43;;;;;;;11.05;5.88;;;;;;;;;;4964079;28;20171;-36
2023/07/08 04:30:18;;;;;;;9.03;6.97;;;;;;;;;;4957119;28;20037;-36
2023/07/08 04:32:43;;;;;;;9.27;5.93;;;;;;;;;;4963808;28;20266;-36
2023/07/08 04:35:08;;;;;;;8.50;5.80;;;;;;;;;;4964316;28;20030;-36
2023/07/08 04:37:34;;;;;;;8.47;5.60;;;;;;;;;;4965375;28;20532;-36
2023/07/08 04:40:00;;;;;;;8.13;5.70;;;;;;;;;;4965097;28;20290;-36
2023/07/08 04:42:28;;;;;;;13.25;5.88;;;;;;;;;;4966534;28;20045;-38
2023/07/08 04:44:54;;;;;;;12.32;6.15;;;;;;;;;;4962612;28;20041;-36
2023/07/08 04:47:20;;;;;;;10.27;7.22;;;;;;;;;;4956746;28;20019;-35
2023/07/08 04:49:47;;;;;;;9.25;6.05;;;;;;;;;;4960418;28;20027;-36
2023/07/08 04:52:12;;;;;;;10.45;5.28;;;;;;;;;;4963678;28;20038;-36
2023/07/08 04:54:37;;;;;;;8.10;6.20;;;;;;;;;;4963847;28;20019;-36
2023/07/08 04:57:02;;;;;;;10.37;6.27;;;;;;;;;;4960914;28;20278;-36
2023/07/08 04:59:28;;;;;;;10.65;5.65;;;;;;;;;;4962819;28;20361;-37
2023/07/08 05:01:53;;;;;;;7.47;5.47;;;;;;;;;;4958344;28;20038;-36
2023/07/08 05:04:20;;;;;;;11.52;6.90;;;;;;;;;;4965596;28;20041;-36
2023/07/08 05:06:46;;;;;;;10.88;5.80;;;;;;;;;;4968920;28;20027;-36
2023/07/08 05:09:11;;;;;;;12.82;5.68;;;;;;;;;;4967678;28;20571;-36
2023/07/08 05:11:36;;;;;;;8.70;5.63;;;;;;;;;;4960103;28;20019;-36
2023/07/08 05:14:02;;;;;;;8.02;5.30;;;;;;;;;;4965075;28;20030;-37
2023/07/08 05:16:28;;;;;;;9.35;5.65;;;;;;;;;;4953252;28;20386;-36
2023/07/08 05:18:53;;;;;;;8.63;5.60;;;;;;;;;;4949410;28;20039;-37
2023/07/08 05:21:19;;;;;;;12.55;5.85;;;;;;;;;;4950448;28;20420;-36
2023/07/08 05:23:44;;;;;;;10.93;5.90;;;;;;;;;;4962989;28;20110;-36
2023/07/08 05:26:10;;;;;;;9.90;6.18;;;;;;;;;;4962816;28;20035;-36
2023/07/08 05:28:35;;;;;;;8.50;6.87;;;;;;;;;;4952292;28;20065;-36
2023/07/08 05:31:01;;;;;;;21.33;12.32;;;;;;;;;;4964177;28;20034;-35
2023/07/08 05:33:28;;;;;;;23.10;8.32;;;;;;;;;;4958478;28;20397;-37
2023/07/08 05:35:53;;;;;;;14.38;6.97;;;;;;;;;;4964259;28;20454;-36
2023/07/08 05:38:18;;;;;;;11.50;6.15;;;;;;;;;;4966921;28;20493;-36
2023/07/08 05:40:49;;;;;;;13.25;5.93;;;;;;;;;;4957157;28;20031;-37
2023/07/08 05:43:14;;;;;;;15.50;6.82;;;;;;;;;;4958662;28;20027;-36
2023/07/08 05:45:45;;;;;;;15.35;7.88;;;;;;;;;;4958208;28;20441;-49
2023/07/08 05:48:10;;;;;;;9.35;6.13;;;;;;;;;;4948355;28;20105;-35
2023/07/08 05:50:36;;;;;;;10.98;6.15;;;;;;;;;;4954482;28;20113;-36
2023/07/08 05:53:01;;;;;;;10.20;6.47;;;;;;;;;;4959711;28;20126;-37
2023/07/08 05:55:26;;;;;;;7.90;5.53;;;;;;;;;;4959038;28;20490;-37
2023/07/08 05:57:51;;;;;;;8.90;6.30;;;;;;;;;;4948821;28;20372;-36
2023/07/08 06:00:17;;;;;;;9.63;6.07;;;;;;;;;;4953318;28;20309;-37
2023/07/08 06:02:42;;;;;;;16.08;6.30;;;;;;;;;;4946643;28;20109;-36
2023/07/08 06:05:07;;;;;;;10.77;6.22;;;;;;;;;;4955551;28;20054;-36
2023/07/08 06:07:33;;;;;;;21.80;7.32;;;;;;;;;;4958018;28;20106;-37
2023/07/08 06:09:59;;;;;;;21.73;8.73;;;;;;;;;;4952800;28;20101;-36
2023/07/08 06:12:24;;;;;;;13.02;5.97;;;;;;;;;;4956823;28;20062;-37
2023/07/08 06:14:49;;;;;;;11.70;6.10;;;;;;;;;;4954990;28;20579;-38
2023/07/08 06:17:16;;;;;;;9.38;5.80;;;;;;;;;;4944902;28;20363;-36
2023/07/08 06:19:41;;;;;;;7.93;5.40;;;;;;;;;;4952359;28;20054;-36
2023/07/08 06:22:06;;;;;;;9.50;5.20;;;;;;;;;;4957682;28;20138;-36
2023/07/08 06:24:31;;;;;;;10.07;6.23;;;;;;;;;;4951921;28;20345;-37
2023/07/08 06:26:57;;;;;;;10.93;5.90;;;;;;;;;;4954478;28;20113;-36
2023/07/08 06:29:22;;;;;;;9.83;6.63;;;;;;;;;;4954446;28;20386;-35
2023/07/08 06:31:47;;;;;;;10.73;6.30;;;;;;;;;;4954574;28;20280;-36
2023/07/08 06:34:13;;;;;;;12.43;6.13;;;;;;;;;;4946612;28;20334;-36
2023/07/08 06:36:38;;;;;;;6.73;5.13;;;;;;;;;;4947880;28;20705;-36
2023/07/08 06:39:06;;;;;;;10.98;5.22;;;;;;;;;;4957458;28;20293;-37
2023/07/08 06:41:32;;;;;;;9.00;5.07;;;;;;;;;;4951731;28;20019;-37
2023/07/08 06:43:58;;;;;;;7.28;4.88;;;;;;;;;;4947513;28;20049;-36
2023/07/08 06:46:24;;;;;;;6.50;5.15;;;;;;;;;;4959834;28;20396;-37
2023/07/08 06:48:49;;;;;;;13.25;8.60;;;;;;;;;;4961460;28;21290;-37
2023/07/08 06:51:14;;;;;;;13.27;7.73;;;;;;;;;;4961389;28;20027;-36
2023/07/08 06:53:41;;;;;;;10.95;6.53;;;;;;;;;;4959866;28;20797;-36
2023/07/08 06:56:06;;;;;;;13.63;4.95;;;;;;;;;;4959984;28;20030;-36
2023/07/08 06:58:32;;;;;;;7.20;4.60;;;;;;;;;;4962189;28;20401;-36
2023/07/08 07:00:57;;;;;;;9.98;5.63;;;;;;;;;;4952713;28;21211;-35
2023/07/08 07:03:23;;;;;;;7.60;4.10;;;;;;;;;;4955405;28;20179;-36
2023/07/08 07:05:48;;;;;;;10.15;4.45;;;;;;;;;;4958931;28;20023;-36
2023/07/08 07:08:16;;;;;;;10.80;4.20;;;;;;;;;;4957904;28;20038;-39
2023/07/08 07:10:41;;;;;;;10.05;4.03;;;;;;;;;;4956055;28;20023;-35
2023/07/08 07:13:07;;;;;;;4.90;3.13;;;;;;;;;;4961979;28;20049;-35
2023/07/08 07:15:32;;;;;;;8.43;3.80;;;;;;;;;;4947942;28;20057;-35
2023/07/08 07:17:57;;;;;;;4.78;3.20;;;;;;;;;;4952032;28;20581;-35
2023/07/08 07:20:23;;;;;;;6.97;3.80;;;;;;;;;;4945144;28;20505;-38
2023/07/08 07:22:51;;;;;;;6.07;3.72;;;;;;;;;;4949890;28;20072;-36
2023/07/08 07:25:16;;;;;;;4.63;3.53;;;;;;;;;;4968110;28;20430;-37
2023/07/08 07:27:41;;;;;;;5.75;2.97;;;;;;;;;;4945191;28;20482;-36
2023/07/08 07:30:07;;;;;;;5.47;3.13;;;;;;;;;;4936808;28;20485;-37
2023/07/08 07:32:33;;;;;;;4.85;3.10;;;;;;;;;;4942408;28;20262;-37
2023/07/08 07:34:59;;;;;;;6.20;3.25;;;;;;;;;;4959753;28;20027;-41
2023/07/08 07:37:24;;;;;;;6.85;4.13;;;;;;;;;;4955498;28;20081;-38
2023/07/08 07:39:50;;;;;;;5.37;3.23;;;;;;;;;;4954074;28;20046;-37
2023/07/08 07:42:16;;;;;;;6.83;3.10;;;;;;;;;;4945761;28;20393;-36
2023/07/08 07:44:41;;;;;;;5.78;3.00;;;;;;;;;;4948066;28;20277;-35
2023/07/08 07:47:08;;;;;;;10.38;3.72;;;;;;;;;;4965045;28;20031;-38
2023/07/08 07:49:33;;;;;;;9.57;3.30;;;;;;;;;;4955997;28;20494;-36
2023/07/08 07:51:58;;;;;;;4.88;3.20;;;;;;;;;;4941244;28;20038;-37
2023/07/08 07:54:24;;;;;;;6.67;3.33;;;;;;;;;;4959677;28;20039;-37
2023/07/08 07:56:49;;;;;;;4.00;2.10;;;;;;;;;;4948284;28;20049;-36
2023/07/08 07:59:14;;;;;;;9.77;3.47;;;;;;;;;;4954309;28;20437;-36
2023/07/08 08:01:41;;;;;;;5.88;3.10;;;;;;;;;;4956109;28;20042;-36
2023/07/08 08:04:08;;;;;;;5.78;3.47;;;;;;;;;;4958971;28;20042;-37
2023/07/08 08:06:33;;;;;;;5.43;2.70;;;;;;;;;;4947223;28;20043;-36
2023/07/08 08:08:58;;;;;;;10.23;3.25;;;;;;;;;;4954372;28;20166;-37
2023/07/08 08:11:25;;;;;;;5.93;2.70;;;;;;;;;;4958067;28;20110;-37
2023/07/08 08:13:50;;;;;;;6.32;2.53;;;;;;;;;;4959725;28;21001;-36
2023/07/08 08:16:16;;;;;;;7.80;3.25;;;;;;;;;;4956566;28;20027;-37
2023/07/08 08:18:41;;;;;;;5.60;3.33;;;;;;;;;;4955643;28;20030;-37
2023/07/08 08:21:06;;;;;;;5.97;2.77;;;;;;;;;;4958866;28;20031;-37
2023/07/08 08:23:32;;;;;;;3.35;1.67;;;;;;;;;;4953046;28;20037;-36
2023/07/08 08:25:57;;;;;;;4.63;3.10;;;;;;;;;;4960694;28;20061;-37
2023/07/08 08:28:23;;;;;;;6.30;2.67;;;;;;;;;;4960673;28;20062;-36
2023/07/08 08:30:49;;;;;;;4.55;2.92;;;;;;;;;;4950148;28;20433;-36
2023/07/08 08:33:14;;;;;;;6.40;2.53;;;;;;;;;;4957291;28;20070;-37
2023/07/08 08:35:41;;;;;;;5.10;2.70;;;;;;;;;;4958638;28;20470;-36
2023/07/08 08:38:06;;;;;;;7.78;2.95;;;;;;;;;;4959708;28;20022;-38
2023/07/08 08:40:32;;;;;;;6.57;2.37;;;;;;;;;;4955489;28;20027;-37
2023/07/08 08:42:59;;;;;;;5.75;2.78;;;;;;;;;;4961813;28;20281;-36
2023/07/08 08:45:26;;;;;;;3.60;2.55;;;;;;;;;;4947869;28;20042;-37
2023/07/08 08:47:54;;;;;;;4.43;2.33;;;;;;;;;;4958181;28;20125;-36
2023/07/08 08:50:24;;;;;;;5.55;2.92;;;;;;;;;;4959489;28;20055;-37
2023/07/08 08:52:50;;;;;;;4.07;2.53;;;;;;;;;;4958112;28;20029;-36
2023/07/08 08:55:16;;;;;;;5.70;2.42;;;;;;;;;;4957186;28;20113;-36
2023/07/08 08:57:56;;;;;;;5.07;2.85;;;;;;;;;;4959370;28;20037;-37
2023/07/08 09:00:25;;;;;;;6.18;3.00;;;;;;;;;;4953072;28;20031;-36
2023/07/08 09:02:59;;;;;;;6.07;2.47;;;;;;;;;;4960625;28;20031;-36
2023/07/08 09:05:25;;;;;;;4.65;2.70;;;;;;;;;;4961211;28;20042;-36
2023/07/08 09:10:35;;;;;;;3.88;2.42;;;;;;;;;;5698555;23;20991;-37
2023/07/08 09:13:02;;;;;;;4.88;3.40;;;;;;;;;;4970121;28;20025;-37
2023/07/08 09:15:28;;;;;;;5.97;2.90;;;;;;;;;;5002159;28;20133;-37
2023/07/08 09:17:57;;;;;;;7.40;3.63;;;;;;;;;;5002976;28;20052;-37
2023/07/08 09:20:29;;;;;;;5.05;2.92;;;;;;;;;;4994026;28;20740;-37
2023/07/08 09:23:11;;;;;;;6.72;4.00;;;;;;;;;;4981620;28;20030;-37
2023/07/08 09:25:51;;;;;;;7.10;3.83;;;;;;;;;;4986924;28;20042;-37
2023/07/08 09:28:16;;;;;;;5.90;2.83;;;;;;;;;;4976115;28;20034;-37
2023/07/08 09:30:44;;;;;;;6.00;2.90;;;;;;;;;;4979095;28;20138;-37
2023/07/08 09:33:10;;;;;;;4.55;2.38;;;;;;;;;;4990029;28;20022;-37
2023/07/08 09:35:42;;;;;;;4.70;2.80;;;;;;;;;;4974147;28;20037;-38
2023/07/08 09:38:07;;;;;;;;;;;;;;;;;;4980155;28;20366;-37
2023/07/08 09:40:33;;;;;;;3.77;2.77;;;;;;;;;;4978637;28;20401;-37
2023/07/08 09:43:02;;;;;;;7.72;2.95;;;;;;;;;;4979714;28;20449;-37
2023/07/08 09:45:28;;;;;;;4.95;2.95;;;;;;;;;;4972916;28;20033;-37
2023/07/08 09:47:57;;;;;;;5.35;3.00;;;;;;;;;;4987179;28;20053;-37
2023/07/08 09:50:27;;;;;;;3.63;2.40;;;;;;;;;;4978266;28;20109;-37
2023/07/08 09:52:54;;;;;;;5.20;2.40;;;;;;;;;;4984337;28;20026;-37
2023/07/08 09:55:19;;;;;;;5.28;2.30;;;;;;;;;;4974222;28;20291;-37
2023/07/08 09:57:46;;;;;;;4.10;2.40;;;;;;;;;;4984035;28;20019;-37
2023/07/08 10:00:16;;;;;;;4.07;2.50;;;;;;;;;;4984676;28;20049;-36
2023/07/08 10:03:01;;;;;;;8.07;3.92;;;;;;;;;;4984671;28;20025;-35
2023/07/08 10:05:38;;;;;;;5.43;3.15;;;;;;;;;;4981049;28;20145;-35
2023/07/08 10:08:11;;;;;;;5.43;2.40;;;;;;;;;;4986587;28;20026;-37
2023/07/08 10:10:37;;;;;;;4.53;2.25;;;;;;;;;;4977440;28;20018;-37
2023/07/08 10:13:15;;;;;;;5.05;2.20;;;;;;;;;;4982887;28;20037;-37
2023/07/08 10:15:42;;;;;;;4.70;2.35;;;;;;;;;;4973740;28;20038;-36
2023/07/08 10:18:15;;;;;;;7.88;3.28;;;;;;;;;;4976538;28;20591;-37
2023/07/08 10:21:02;;;;;;;8.38;4.10;;;;;;;;;;4968709;28;20156;-36
2023/07/08 10:23:48;;;;;;;8.63;4.13;;;;;;;;;;4976085;28;20153;-37
2023/07/08 10:26:23;;;;;;;3.92;2.38;;;;;;;;;;4981744;28;20046;-37
2023/07/08 10:28:58;;;;;;;5.72;2.63;;;;;;;;;;4977489;28;20030;-37
2023/07/08 10:31:29;;;;;;;9.52;5.95;;;;;;;;;;4977106;28;20061;-37
2023/07/08 10:34:14;;;;;;;10.07;4.10;;;;;;;;;;4978996;28;20023;-37
2023/07/08 10:36:56;;;;;;;4.72;2.40;;;;;;;;;;4969519;28;20031;-38
2023/07/08 10:39:22;;;;;;;4.00;1.83;;;;;;;;;;4979167;28;20026;-36
2023/07/08 10:41:52;;;;;;;4.77;1.90;;;;;;;;;;4976366;28;20049;-37
2023/07/08 10:44:23;;;;;;;4.32;2.33;;;;;;;;;;4968856;28;20030;-38
2023/07/08 10:47:01;;;;;;;4.13;2.33;;;;;;;;;;4979706;28;20101;-39
2023/07/08 10:49:39;;;;;;;4.30;2.50;;;;;;;;;;4982521;28;20026;-37
2023/07/08 10:52:10;;;;;;;5.00;2.38;;;;;;;;;;4986161;28;20490;-37
2023/07/08 10:54:48;;;;;;;5.85;2.45;;;;;;;;;;4980174;28;20030;-38
2023/07/08 10:57:13;;;;;;;4.57;2.08;;;;;;;;;;4986962;28;20034;-38
2023/07/08 10:59:50;;;;;;;5.00;2.43;;;;;;;;;;4990363;28;20026;-38
2023/07/08 11:02:30;;;;;;;4.93;1.90;;;;;;;;;;4988852;28;20053;-38
2023/07/08 11:05:14;;;;;;;5.72;2.30;;;;;;;;;;4971264;28;20026;-37
2023/07/08 11:07:50;;;;;;;4.75;2.30;;;;;;;;;;4979182;28;20026;-37
2023/07/08 11:10:15;;;;;;;4.55;2.17;;;;;;;;;;4978046;28;20023;-38
2023/07/08 11:12:45;;;;;;;3.77;2.23;;;;;;;;;;4976629;28;20032;-37
2023/07/08 11:15:11;;;;;;;4.93;2.00;;;;;;;;;;4973901;28;20315;-38
2023/07/08 11:17:59;;;;;;;5.23;1.70;;;;;;;;;;4982242;28;20101;-37
2023/07/08 11:20:34;;;;;;;5.07;2.70;;;;;;;;;;4936620;28;20034;-38
2023/07/08 11:23:02;;;;;;;4.10;2.33;;;;;;;;;;4977971;28;20624;-37
2023/07/08 11:25:28;;;;;;;4.60;2.40;;;;;;;;;;4983183;28;20022;-37
2023/07/08 11:27:56;;;;;;;4.55;1.95;;;;;;;;;;4986114;28;20458;-38
2023/07/08 11:30:24;;;;;;;3.78;2.03;;;;;;;;;;4976662;28;20034;-37
2023/07/08 11:32:55;;;;;;;5.75;2.10;;;;;;;;;;4984722;28;20027;-37
2023/07/08 11:35:23;;;;;;;5.13;2.60;;;;;;;;;;4987534;28;20113;-38
2023/07/08 11:37:49;;;;;;;3.38;2.20;;;;;;;;;;4989338;28;20019;-38
2023/07/08 11:40:23;;;;;;;4.32;2.35;;;;;;;;;;4986862;28;20026;-38
2023/07/08 11:42:59;;;;;;;3.35;1.90;;;;;;;;;;4986754;28;20056;-38
2023/07/08 11:45:27;;;;;;;5.20;1.67;;;;;;;;;;4980075;28;20030;-38
2023/07/08 11:47:52;;;;;;;4.93;2.10;;;;;;;;;;4982318;28;20026;-37
2023/07/08 11:50:18;;;;;;;5.43;2.97;;;;;;;;;;4985849;28;20022;-38
2023/07/08 11:52:50;;;;;;;4.05;1.90;;;;;;;;;;4982883;28;20404;-37
2023/07/08 11:55:20;;;;;;;3.42;2.05;;;;;;;;;;4985034;28;20650;-37
2023/07/08 11:57:52;;;;;;;4.50;2.22;;;;;;;;;;4972949;28;20054;-37
2023/07/08 12:00:19;;;;;;;4.22;2.00;;;;;;;;;;4987039;28;20354;-38
2023/07/08 12:02:48;;;;;;;4.22;1.92;;;;;;;;;;4987245;28;20378;-38
2023/07/08 12:05:14;;;;;;;6.47;2.30;;;;;;;;;;4981971;28;20484;-38
2023/07/08 12:07:46;;;;;;;4.63;2.10;;;;;;;;;;4985099;28;20154;-38
2023/07/08 12:10:16;;;;;;;7.20;3.97;;;;;;;;;;4987993;28;20296;-38
2023/07/08 12:12:42;;;;;;;5.07;2.20;;;;;;;;;;4980378;28;20022;-38
2023/07/08 12:15:12;;;;;;;4.97;2.35;;;;;;;;;;4978332;28;20030;-38
2023/07/08 12:17:39;;;;;;;3.47;2.17;;;;;;;;;;4984268;28;20563;-38
2023/07/08 12:20:07;;;;;;;4.40;2.17;;;;;;;;;;4975527;28;20536;-38
2023/07/08 12:22:33;;;;;;;4.35;2.28;;;;;;;;;;4975806;28;20024;-38
2023/07/08 12:25:05;;;;;;;4.15;2.42;;;;;;;;;;4985242;28;20024;-36
2023/07/08 12:27:31;;;;;;;7.00;2.25;;;;;;;;;;4976555;28;20030;-37
2023/07/08 12:29:56;;;;;;;6.82;1.98;;;;;;;;;;4980971;28;20026;-38
2023/07/08 12:32:25;;;;;;;5.00;2.15;;;;;;;;;;4968882;28;20527;-37
2023/07/08 12:34:50;;;;;;;5.60;2.00;;;;;;;;;;4986649;28;20030;-38
2023/07/08 12:37:16;;;;;;;5.63;2.20;;;;;;;;;;4973070;28;20085;-38
2023/07/08 12:39:41;;;;;;;4.87;2.10;;;;;;;;;;4985092;28;20665;-37
2023/07/08 12:42:11;;;;;;;3.65;1.85;;;;;;;;;;4976246;28;20296;-38
2023/07/08 12:44:39;;;;;;;4.20;1.90;;;;;;;;;;4981715;28;20050;-37
2023/07/08 12:47:04;;;;;;;3.30;2.22;;;;;;;;;;4979071;28;20023;-38
2023/07/08 12:49:30;;;;;;;5.72;2.35;;;;;;;;;;4975719;28;20034;-38
2023/07/08 12:51:55;;;;;;;3.13;1.92;;;;;;;;;;4968007;28;20030;-38
2023/07/08 12:54:22;;;;;;;3.87;2.10;;;;;;;;;;4991493;28;20033;-37
2023/07/08 12:56:47;;;;;;;4.70;2.30;;;;;;;;;;4988092;28;20022;-37
2023/07/08 12:59:20;;;;;;;3.72;2.25;;;;;;;;;;4983726;28;20032;-37
2023/07/08 13:01:47;;;;;;;4.20;2.28;;;;;;;;;;4981193;28;20014;-38
2023/07/08 13:04:12;;;;;;;2.97;1.90;;;;;;;;;;4987930;28;20051;-37
2023/07/08 13:06:38;;;;;;;3.85;2.10;;;;;;;;;;4989812;28;20026;-38
2023/07/08 13:09:19;;;;;;;5.00;2.15;;;;;;;;;;4978114;28;20034;-38
2023/07/08 13:11:45;;;;;;;6.15;2.22;;;;;;;;;;4989008;28;20030;-38
2023/07/08 13:14:11;;;;;;;3.42;1.95;;;;;;;;;;4990745;28;20027;-38
2023/07/08 13:16:37;;;;;;;3.60;2.10;;;;;;;;;;4989978;28;20105;-38
2023/07/08 13:19:03;;;;;;;19.60;10.80;;;;;;;;;;4988293;28;20134;-37
2023/07/08 13:21:30;;;;;;;20.08;13.23;;;;;;;;;;4990186;28;20030;-38
2023/07/08 13:23:55;;;;;;;6.75;3.63;;;;;;;;;;4990006;28;20093;-37
2023/07/08 13:26:21;;;;;;;8.43;3.60;;;;;;;;;;4984660;28;20022;-37
2023/07/08 13:28:48;;;;;;;10.32;4.40;;;;;;;;;;4980824;28;20745;-37
2023/07/08 13:31:21;;;;;;;9.55;3.47;;;;;;;;;;4985952;28;20030;-37
2023/07/08 13:33:48;;;;;;;5.38;2.90;;;;;;;;;;4988957;28;20452;-37
2023/07/08 13:36:16;;;;;;;3.92;2.08;;;;;;;;;;4991191;28;20022;-38
2023/07/08 13:38:41;;;;;;;4.90;2.10;;;;;;;;;;4991645;28;20034;-37
2023/07/08 13:41:08;;;;;;;4.93;1.97;;;;;;;;;;4980534;28;20034;-37
2023/07/08 13:43:35;;;;;;;4.15;2.65;;;;;;;;;;4985088;28;20297;-38
2023/07/08 13:46:00;;;;;;;3.13;1.98;;;;;;;;;;4992316;28;20093;-37
2023/07/08 13:48:29;;;;;;;4.70;1.98;;;;;;;;;;4993805;28;20443;-38
2023/07/08 13:51:08;;;;;;;4.68;2.15;;;;;;;;;;4986848;28;20026;-38
2023/07/08 13:53:42;;;;;;;3.97;2.58;;;;;;;;;;4988979;28;20050;-38
2023/07/08 13:56:13;;;;;;;4.65;2.30;;;;;;;;;;4983624;28;20049;-37
2023/07/08 13:58:39;;;;;;;;;;;;;;;;;;4989343;28;20022;-37
2023/07/08 14:01:05;;;;;;;3.63;2.45;;;;;;;;;;4991816;28;19905;-38
2023/07/08 14:03:31;;;;;;;3.63;2.15;;;;;;;;;;4982991;28;20045;-37
2023/07/08 14:05:56;;;;;;;3.20;1.67;;;;;;;;;;4974643;28;20038;-35
2023/07/08 14:08:22;;;;;;;5.07;2.20;;;;;;;;;;4982735;28;20196;-35
2023/07/08 14:10:47;;;;;;;2.92;1.70;;;;;;;;;;4982403;28;20808;-36
2023/07/08 14:13:13;;;;;;;4.00;1.83;;;;;;;;;;4981411;28;20094;-38
2023/07/08 14:15:39;;;;;;;4.57;1.90;;;;;;;;;;4984152;28;20026;-38
2023/07/08 14:18:05;;;;;;;4.38;1.88;;;;;;;;;;4987229;28;20025;-35
2023/07/08 14:20:30;;;;;;;5.95;2.28;;;;;;;;;;4984706;28;20026;-36
2023/07/08 14:22:56;;;;;;;7.88;2.47;;;;;;;;;;4989251;28;20065;-36
2023/07/08 14:25:23;;;;;;;3.50;2.13;;;;;;;;;;4988427;28;20642;-35
2023/07/08 14:27:48;;;;;;;5.05;2.85;;;;;;;;;;4985986;28;20023;-36
2023/07/08 14:30:15;;;;;;;7.28;2.17;;;;;;;;;;4979190;28;20088;-35
2023/07/08 14:32:40;;;;;;;14.88;7.60;;;;;;;;;;4977973;28;20030;-36
2023/07/08 14:35:11;;;;;;;11.70;6.30;;;;;;;;;;4988792;28;20041;-35
2023/07/08 14:37:37;;;;;;;6.25;2.78;;;;;;;;;;4988408;28;20337;-36
2023/07/08 14:40:23;;;;;;;5.13;2.43;;;;;;;;;;4988052;28;20113;-36
2023/07/08 14:42:49;;;;;;;3.47;1.98;;;;;;;;;;4986077;28;20625;-35
2023/07/08 14:45:14;;;;;;;4.78;2.10;;;;;;;;;;4990298;28;20484;-35